sensor_id;sensor_type;location;lat;lon;timestamp;temperature;humidity
774;DHT22;370;48.810;9.150;2023-01-19T00:00:44;-1.80;20.00
774;DHT22;370;48.810;9.150;2023-01-19T00:03:11;-1.80;20.00
774;DHT22;370;48.810;9.150;2023-01-19T00:05:40;-1.80;19.60
774;DHT22;370;48.810;9.150;2023-01-19T00:08:07;-1.80;19.60
774;DHT22;370;48.810;9.150;2023-01-19T00:10:40;-1.80;20.00
774;DHT22;370;48.810;9.150;2023-01-19T00:13:07;-1.80;19.70
774;DHT22;370;48.810;9.150;2023-01-19T00:15:35;-1.80;20.20
774;DHT22;370;48.810;9.150;2023-01-19T00:18:01;-1.80;20.10
774;DHT22;370;48.810;9.150;2023-01-19T00:20:28;-1.90;20.20
774;DHT22;370;48.810;9.150;2023-01-19T00:22:56;-1.90;20.70
774;DHT22;370;48.810;9.150;2023-01-19T00:25:23;-1.90;21.00
774;DHT22;370;48.810;9.150;2023-01-19T00:27:49;-1.80;21.30
774;DHT22;370;48.810;9.150;2023-01-19T00:30:16;-1.80;21.20
774;DHT22;370;48.810;9.150;2023-01-19T00:32:44;-1.80;21.60
774;DHT22;370;48.810;9.150;2023-01-19T00:35:11;-1.90;21.30
774;DHT22;370;48.810;9.150;2023-01-19T00:37:38;-1.90;21.70
774;DHT22;370;48.810;9.150;2023-01-19T00:40:06;-1.90;22.20
774;DHT22;370;48.810;9.150;2023-01-19T00:42:33;-1.90;22.00
774;DHT22;370;48.810;9.150;2023-01-19T00:45:07;-1.90;22.50
774;DHT22;370;48.810;9.150;2023-01-19T00:47:34;-1.90;22.20
774;DHT22;370;48.810;9.150;2023-01-19T00:50:02;-1.80;21.80
774;DHT22;370;48.810;9.150;2023-01-19T00:52:29;-1.80;21.50
774;DHT22;370;48.810;9.150;2023-01-19T00:54:56;-1.80;21.00
774;DHT22;370;48.810;9.150;2023-01-19T00:57:23;-1.90;21.10
774;DHT22;370;48.810;9.150;2023-01-19T00:59:50;-1.90;20.90
774;DHT22;370;48.810;9.150;2023-01-19T01:02:17;-1.90;20.90
774;DHT22;370;48.810;9.150;2023-01-19T01:04:44;-1.90;20.90
774;DHT22;370;48.810;9.150;2023-01-19T01:07:12;-1.90;20.80
774;DHT22;370;48.810;9.150;2023-01-19T01:09:38;-2.00;20.70
774;DHT22;370;48.810;9.150;2023-01-19T01:12:05;-2.00;21.10
774;DHT22;370;48.810;9.150;2023-01-19T01:14:32;-2.00;21.90
774;DHT22;370;48.810;9.150;2023-01-19T01:16:59;-2.00;21.00
774;DHT22;370;48.810;9.150;2023-01-19T01:19:28;-2.10;22.00
774;DHT22;370;48.810;9.150;2023-01-19T01:21:55;-2.00;22.10
774;DHT22;370;48.810;9.150;2023-01-19T01:24:23;-2.00;21.50
774;DHT22;370;48.810;9.150;2023-01-19T01:26:50;-2.00;21.40
774;DHT22;370;48.810;9.150;2023-01-19T01:29:16;-2.00;21.00
774;DHT22;370;48.810;9.150;2023-01-19T01:31:43;-2.10;20.60
774;DHT22;370;48.810;9.150;2023-01-19T01:34:09;-2.10;21.80
774;DHT22;370;48.810;9.150;2023-01-19T01:36:36;-2.10;21.90
774;DHT22;370;48.810;9.150;2023-01-19T01:39:03;-2.20;22.50
774;DHT22;370;48.810;9.150;2023-01-19T01:41:31;-2.10;23.50
774;DHT22;370;48.810;9.150;2023-01-19T01:43:58;-2.10;22.50
774;DHT22;370;48.810;9.150;2023-01-19T01:46:28;-2.20;22.30
774;DHT22;370;48.810;9.150;2023-01-19T01:49:02;-2.20;22.20
774;DHT22;370;48.810;9.150;2023-01-19T01:51:31;-2.20;21.80
774;DHT22;370;48.810;9.150;2023-01-19T01:54:10;-2.20;21.50
774;DHT22;370;48.810;9.150;2023-01-19T01:56:42;-2.30;20.90
774;DHT22;370;48.810;9.150;2023-01-19T01:59:12;-2.30;22.70
774;DHT22;370;48.810;9.150;2023-01-19T02:01:42;-2.40;23.30
774;DHT22;370;48.810;9.150;2023-01-19T02:04:28;-2.40;23.30
774;DHT22;370;48.810;9.150;2023-01-19T02:06:55;-2.40;23.70
774;DHT22;370;48.810;9.150;2023-01-19T02:09:39;-2.40;23.30
774;DHT22;370;48.810;9.150;2023-01-19T02:12:26;-2.40;24.30
774;DHT22;370;48.810;9.150;2023-01-19T02:15:16;-2.40;25.10
774;DHT22;370;48.810;9.150;2023-01-19T02:17:43;-2.40;25.20
774;DHT22;370;48.810;9.150;2023-01-19T02:20:10;-2.50;25.10
774;DHT22;370;48.810;9.150;2023-01-19T02:22:44;-2.50;25.20
774;DHT22;370;48.810;9.150;2023-01-19T02:25:15;-2.40;26.60
774;DHT22;370;48.810;9.150;2023-01-19T02:27:42;-2.40;25.30
774;DHT22;370;48.810;9.150;2023-01-19T02:30:10;-2.50;25.50
774;DHT22;370;48.810;9.150;2023-01-19T02:32:37;-2.40;25.30
774;DHT22;370;48.810;9.150;2023-01-19T02:35:04;-2.30;25.20
774;DHT22;370;48.810;9.150;2023-01-19T02:37:33;-2.30;25.10
774;DHT22;370;48.810;9.150;2023-01-19T02:40:04;-2.30;24.10
774;DHT22;370;48.810;9.150;2023-01-19T02:42:35;-2.30;24.80
774;DHT22;370;48.810;9.150;2023-01-19T02:45:04;-2.30;24.00
774;DHT22;370;48.810;9.150;2023-01-19T02:47:36;-2.30;23.30
774;DHT22;370;48.810;9.150;2023-01-19T02:50:05;-2.30;24.50
774;DHT22;370;48.810;9.150;2023-01-19T02:52:54;-2.30;24.10
774;DHT22;370;48.810;9.150;2023-01-19T02:55:27;-2.40;24.10
774;DHT22;370;48.810;9.150;2023-01-19T02:58:01;-2.40;23.70
774;DHT22;370;48.810;9.150;2023-01-19T03:00:39;-2.40;24.30
774;DHT22;370;48.810;9.150;2023-01-19T03:03:15;-2.40;24.60
774;DHT22;370;48.810;9.150;2023-01-19T03:05:53;-2.40;25.10
774;DHT22;370;48.810;9.150;2023-01-19T03:08:31;-2.40;24.50
774;DHT22;370;48.810;9.150;2023-01-19T03:11:02;-2.40;24.40
774;DHT22;370;48.810;9.150;2023-01-19T03:13:39;-2.40;25.00
774;DHT22;370;48.810;9.150;2023-01-19T03:16:13;-2.40;24.70
774;DHT22;370;48.810;9.150;2023-01-19T03:18:44;-2.50;23.80
774;DHT22;370;48.810;9.150;2023-01-19T03:21:12;-2.40;24.70
774;DHT22;370;48.810;9.150;2023-01-19T03:23:41;-2.40;24.50
774;DHT22;370;48.810;9.150;2023-01-19T03:26:13;-2.50;24.80
774;DHT22;370;48.810;9.150;2023-01-19T03:28:43;-2.50;24.40
774;DHT22;370;48.810;9.150;2023-01-19T03:31:15;-2.40;24.80
774;DHT22;370;48.810;9.150;2023-01-19T03:33:45;-2.40;24.00
774;DHT22;370;48.810;9.150;2023-01-19T03:36:15;-2.50;23.20
774;DHT22;370;48.810;9.150;2023-01-19T03:38:45;-2.50;23.20
774;DHT22;370;48.810;9.150;2023-01-19T03:41:15;-2.50;23.20
774;DHT22;370;48.810;9.150;2023-01-19T03:43:46;-2.40;24.10
774;DHT22;370;48.810;9.150;2023-01-19T03:46:15;-2.50;24.40
774;DHT22;370;48.810;9.150;2023-01-19T03:48:43;-2.50;24.60
774;DHT22;370;48.810;9.150;2023-01-19T03:51:11;-2.50;23.70
774;DHT22;370;48.810;9.150;2023-01-19T03:53:38;-2.50;23.20
774;DHT22;370;48.810;9.150;2023-01-19T03:56:06;-2.40;23.30
774;DHT22;370;48.810;9.150;2023-01-19T04:02:01;-2.70;23.10
774;DHT22;370;48.810;9.150;2023-01-19T04:04:28;-2.60;24.30
774;DHT22;370;48.810;9.150;2023-01-19T04:06:54;-2.60;23.90
774;DHT22;370;48.810;9.150;2023-01-19T04:09:22;-2.60;24.20
774;DHT22;370;48.810;9.150;2023-01-19T04:11:49;-2.70;23.60
774;DHT22;370;48.810;9.150;2023-01-19T04:14:16;-2.80;24.70
774;DHT22;370;48.810;9.150;2023-01-19T04:16:42;-2.80;25.90
774;DHT22;370;48.810;9.150;2023-01-19T04:19:10;-2.70;26.50
774;DHT22;370;48.810;9.150;2023-01-19T04:21:37;-2.70;26.70
774;DHT22;370;48.810;9.150;2023-01-19T04:24:04;-2.70;26.60
774;DHT22;370;48.810;9.150;2023-01-19T04:26:31;-2.70;26.60
774;DHT22;370;48.810;9.150;2023-01-19T04:28:58;-2.80;25.80
774;DHT22;370;48.810;9.150;2023-01-19T04:31:24;-2.80;25.90
774;DHT22;370;48.810;9.150;2023-01-19T04:33:51;-2.80;26.30
774;DHT22;370;48.810;9.150;2023-01-19T04:36:19;-2.70;25.60
774;DHT22;370;48.810;9.150;2023-01-19T04:38:46;-2.80;25.80
774;DHT22;370;48.810;9.150;2023-01-19T04:41:13;-2.70;25.30
774;DHT22;370;48.810;9.150;2023-01-19T04:43:40;-2.80;24.90
774;DHT22;370;48.810;9.150;2023-01-19T04:46:06;-2.80;25.20
774;DHT22;370;48.810;9.150;2023-01-19T04:48:33;-2.90;25.50
774;DHT22;370;48.810;9.150;2023-01-19T04:51:00;-2.80;26.00
774;DHT22;370;48.810;9.150;2023-01-19T04:53:28;-2.80;26.40
774;DHT22;370;48.810;9.150;2023-01-19T04:55:55;-2.80;25.20
774;DHT22;370;48.810;9.150;2023-01-19T04:58:22;-2.80;25.10
774;DHT22;370;48.810;9.150;2023-01-19T05:00:48;-2.80;25.00
774;DHT22;370;48.810;9.150;2023-01-19T05:03:17;-2.80;25.10
774;DHT22;370;48.810;9.150;2023-01-19T05:05:44;-2.90;25.10
774;DHT22;370;48.810;9.150;2023-01-19T05:08:11;-2.90;25.10
774;DHT22;370;48.810;9.150;2023-01-19T05:10:39;-2.90;25.40
774;DHT22;370;48.810;9.150;2023-01-19T05:13:06;-2.80;25.80
774;DHT22;370;48.810;9.150;2023-01-19T05:15:32;-2.80;26.20
774;DHT22;370;48.810;9.150;2023-01-19T05:17:59;-2.70;26.90
774;DHT22;370;48.810;9.150;2023-01-19T05:20:26;-2.60;26.20
774;DHT22;370;48.810;9.150;2023-01-19T05:22:52;-2.60;25.70
774;DHT22;370;48.810;9.150;2023-01-19T05:25:19;-2.50;26.20
774;DHT22;370;48.810;9.150;2023-01-19T05:27:47;-2.40;25.10
774;DHT22;370;48.810;9.150;2023-01-19T05:30:15;-2.40;23.80
774;DHT22;370;48.810;9.150;2023-01-19T05:32:41;-2.40;23.30
774;DHT22;370;48.810;9.150;2023-01-19T05:35:09;-2.40;22.70
774;DHT22;370;48.810;9.150;2023-01-19T05:37:37;-2.40;21.70
774;DHT22;370;48.810;9.150;2023-01-19T05:40:05;-2.40;22.10
774;DHT22;370;48.810;9.150;2023-01-19T05:42:32;-2.50;21.80
774;DHT22;370;48.810;9.150;2023-01-19T05:45:00;-2.50;22.40
774;DHT22;370;48.810;9.150;2023-01-19T05:47:28;-2.50;23.20
774;DHT22;370;48.810;9.150;2023-01-19T05:49:55;-2.60;23.20
774;DHT22;370;48.810;9.150;2023-01-19T05:52:22;-2.60;23.20
774;DHT22;370;48.810;9.150;2023-01-19T05:54:49;-2.60;23.20
774;DHT22;370;48.810;9.150;2023-01-19T05:57:16;-2.60;23.20
774;DHT22;370;48.810;9.150;2023-01-19T05:59:42;-2.60;24.30
774;DHT22;370;48.810;9.150;2023-01-19T06:02:10;-2.70;24.30
774;DHT22;370;48.810;9.150;2023-01-19T06:04:37;-2.60;25.00
774;DHT22;370;48.810;9.150;2023-01-19T06:07:04;-2.60;24.60
774;DHT22;370;48.810;9.150;2023-01-19T06:09:31;-2.60;24.50
774;DHT22;370;48.810;9.150;2023-01-19T06:11:58;-2.60;23.70
774;DHT22;370;48.810;9.150;2023-01-19T06:14:25;-2.60;24.00
774;DHT22;370;48.810;9.150;2023-01-19T06:16:51;-2.60;24.90
774;DHT22;370;48.810;9.150;2023-01-19T06:19:19;-2.60;24.70
774;DHT22;370;48.810;9.150;2023-01-19T06:21:47;-2.50;24.50
774;DHT22;370;48.810;9.150;2023-01-19T06:24:16;-2.50;24.00
774;DHT22;370;48.810;9.150;2023-01-19T06:26:43;-2.50;24.00
774;DHT22;370;48.810;9.150;2023-01-19T06:29:10;-2.50;24.60
774;DHT22;370;48.810;9.150;2023-01-19T06:31:37;-2.50;24.50
774;DHT22;370;48.810;9.150;2023-01-19T06:34:04;-2.40;24.40
774;DHT22;370;48.810;9.150;2023-01-19T06:36:32;-2.40;23.60
774;DHT22;370;48.810;9.150;2023-01-19T06:38:58;-2.40;24.00
774;DHT22;370;48.810;9.150;2023-01-19T06:41:27;-2.40;23.30
774;DHT22;370;48.810;9.150;2023-01-19T06:43:54;-2.50;23.20
774;DHT22;370;48.810;9.150;2023-01-19T06:46:21;-2.40;23.90
774;DHT22;370;48.810;9.150;2023-01-19T06:48:48;-2.40;23.30
774;DHT22;370;48.810;9.150;2023-01-19T06:51:14;-2.50;23.20
774;DHT22;370;48.810;9.150;2023-01-19T06:53:42;-2.50;23.20
774;DHT22;370;48.810;9.150;2023-01-19T06:56:09;-2.50;23.20
774;DHT22;370;48.810;9.150;2023-01-19T06:58:36;-2.50;23.20
774;DHT22;370;48.810;9.150;2023-01-19T07:01:03;-2.50;24.30
774;DHT22;370;48.810;9.150;2023-01-19T07:03:30;-2.60;24.30
774;DHT22;370;48.810;9.150;2023-01-19T07:05:57;-2.60;24.90
774;DHT22;370;48.810;9.150;2023-01-19T07:08:26;-2.70;25.20
774;DHT22;370;48.810;9.150;2023-01-19T07:10:59;-2.60;26.50
774;DHT22;370;48.810;9.150;2023-01-19T07:13:27;-2.60;25.10
774;DHT22;370;48.810;9.150;2023-01-19T07:15:54;-2.60;25.40
774;DHT22;370;48.810;9.150;2023-01-19T07:18:20;-2.50;25.10
774;DHT22;370;48.810;9.150;2023-01-19T07:20:47;-2.40;25.60
774;DHT22;370;48.810;9.150;2023-01-19T07:23:14;-2.40;25.10
774;DHT22;370;48.810;9.150;2023-01-19T07:25:43;-2.30;23.80
774;DHT22;370;48.810;9.150;2023-01-19T07:28:11;-2.30;23.30
774;DHT22;370;48.810;9.150;2023-01-19T07:30:40;-2.30;23.40
774;DHT22;370;48.810;9.150;2023-01-19T07:33:07;-2.30;22.70
774;DHT22;370;48.810;9.150;2023-01-19T07:35:34;-2.20;23.10
774;DHT22;370;48.810;9.150;2023-01-19T07:38:01;-2.20;22.60
774;DHT22;370;48.810;9.150;2023-01-19T07:40:27;-2.10;21.20
774;DHT22;370;48.810;9.150;2023-01-19T07:42:54;-2.00;21.00
774;DHT22;370;48.810;9.150;2023-01-19T07:45:22;-1.90;20.50
774;DHT22;370;48.810;9.150;2023-01-19T07:47:49;-1.90;19.60
774;DHT22;370;48.810;9.150;2023-01-19T07:50:17;-1.80;19.60
774;DHT22;370;48.810;9.150;2023-01-19T07:52:46;-1.70;18.40
774;DHT22;370;48.810;9.150;2023-01-19T07:55:15;-1.70;17.20
774;DHT22;370;48.810;9.150;2023-01-19T07:57:41;-1.70;15.60
774;DHT22;370;48.810;9.150;2023-01-19T08:00:09;-1.60;15.60
774;DHT22;370;48.810;9.150;2023-01-19T08:02:40;-1.60;14.70
774;DHT22;370;48.810;9.150;2023-01-19T08:05:07;-1.50;14.10
774;DHT22;370;48.810;9.150;2023-01-19T08:07:34;-1.40;14.00
774;DHT22;370;48.810;9.150;2023-01-19T08:10:01;-1.30;13.50
774;DHT22;370;48.810;9.150;2023-01-19T08:12:27;-1.30;13.80
774;DHT22;370;48.810;9.150;2023-01-19T08:14:54;-1.20;13.20
774;DHT22;370;48.810;9.150;2023-01-19T08:17:21;-1.10;12.30
774;DHT22;370;48.810;9.150;2023-01-19T08:19:49;-1.10;11.80
774;DHT22;370;48.810;9.150;2023-01-19T08:22:16;-0.90;11.40
774;DHT22;370;48.810;9.150;2023-01-19T08:24:43;-0.70;10.60
774;DHT22;370;48.810;9.150;2023-01-19T08:27:09;-0.70;7.80
774;DHT22;370;48.810;9.150;2023-01-19T08:29:36;-0.50;8.70
774;DHT22;370;48.810;9.150;2023-01-19T08:32:03;-0.40;8.20
774;DHT22;370;48.810;9.150;2023-01-19T08:34:31;-0.10;6.40
774;DHT22;370;48.810;9.150;2023-01-19T08:36:59;-0.10;5.40
774;DHT22;370;48.810;9.150;2023-01-19T08:39:26;-0.10;5.70
774;DHT22;370;48.810;9.150;2023-01-19T08:41:53;-0.10;5.60
774;DHT22;370;48.810;9.150;2023-01-19T08:44:20;-0.10;5.30
774;DHT22;370;48.810;9.150;2023-01-19T08:46:47;-0.10;5.20
774;DHT22;370;48.810;9.150;2023-01-19T08:49:14;0.00;6.20
774;DHT22;370;48.810;9.150;2023-01-19T08:51:41;0.10;5.80
774;DHT22;370;48.810;9.150;2023-01-19T08:54:11;0.20;6.30
774;DHT22;370;48.810;9.150;2023-01-19T08:56:38;0.30;5.10
774;DHT22;370;48.810;9.150;2023-01-19T08:59:05;0.50;4.90
774;DHT22;370;48.810;9.150;2023-01-19T09:01:31;0.80;3.60
774;DHT22;370;48.810;9.150;2023-01-19T09:03:58;1.10;2.30
774;DHT22;370;48.810;9.150;2023-01-19T09:06:25;1.50;1.50
774;DHT22;370;48.810;9.150;2023-01-19T09:08:52;1.70;1.00
774;DHT22;370;48.810;9.150;2023-01-19T09:11:20;2.20;1.00
774;DHT22;370;48.810;9.150;2023-01-19T09:13:47;2.70;1.00
774;DHT22;370;48.810;9.150;2023-01-19T09:16:14;3.50;1.00
774;DHT22;370;48.810;9.150;2023-01-19T09:18:40;4.00;1.00
774;DHT22;370;48.810;9.150;2023-01-19T09:21:08;4.20;1.00
774;DHT22;370;48.810;9.150;2023-01-19T09:23:35;4.00;1.00
774;DHT22;370;48.810;9.150;2023-01-19T09:26:03;3.80;1.00
774;DHT22;370;48.810;9.150;2023-01-19T09:28:31;3.80;1.00
774;DHT22;370;48.810;9.150;2023-01-19T09:30:58;3.70;1.00
774;DHT22;370;48.810;9.150;2023-01-19T09:33:24;3.60;1.00
774;DHT22;370;48.810;9.150;2023-01-19T09:35:51;3.50;1.00
774;DHT22;370;48.810;9.150;2023-01-19T09:38:18;3.30;1.00
774;DHT22;370;48.810;9.150;2023-01-19T09:40:48;3.40;1.00
774;DHT22;370;48.810;9.150;2023-01-19T09:43:22;3.50;1.00
774;DHT22;370;48.810;9.150;2023-01-19T09:45:54;3.60;1.00
774;DHT22;370;48.810;9.150;2023-01-19T09:48:29;3.50;1.00
774;DHT22;370;48.810;9.150;2023-01-19T09:51:01;3.70;1.00
774;DHT22;370;48.810;9.150;2023-01-19T09:53:41;3.90;1.00
774;DHT22;370;48.810;9.150;2023-01-19T09:56:12;4.20;1.00
774;DHT22;370;48.810;9.150;2023-01-19T09:58:40;4.10;1.00
774;DHT22;370;48.810;9.150;2023-01-19T10:01:27;4.60;1.00
774;DHT22;370;48.810;9.150;2023-01-19T10:04:18;6.70;1.00
774;DHT22;370;48.810;9.150;2023-01-19T10:06:46;7.90;1.00
774;DHT22;370;48.810;9.150;2023-01-19T10:09:21;7.90;1.00
774;DHT22;370;48.810;9.150;2023-01-19T10:11:54;7.60;1.00
774;DHT22;370;48.810;9.150;2023-01-19T10:14:28;7.50;1.00
774;DHT22;370;48.810;9.150;2023-01-19T10:17:06;7.10;1.00
774;DHT22;370;48.810;9.150;2023-01-19T10:19:42;7.10;1.00
774;DHT22;370;48.810;9.150;2023-01-19T10:22:17;6.70;1.00
774;DHT22;370;48.810;9.150;2023-01-19T10:24:45;6.30;1.00
774;DHT22;370;48.810;9.150;2023-01-19T10:27:16;5.50;1.00
774;DHT22;370;48.810;9.150;2023-01-19T10:29:44;5.10;1.00
774;DHT22;370;48.810;9.150;2023-01-19T10:32:14;4.70;1.00
774;DHT22;370;48.810;9.150;2023-01-19T10:34:44;4.50;1.00
774;DHT22;370;48.810;9.150;2023-01-19T10:37:17;4.40;1.00
774;DHT22;370;48.810;9.150;2023-01-19T10:39:51;4.60;1.00
774;DHT22;370;48.810;9.150;2023-01-19T10:42:19;4.80;1.00
774;DHT22;370;48.810;9.150;2023-01-19T10:44:46;5.00;1.00
774;DHT22;370;48.810;9.150;2023-01-19T10:47:15;5.00;1.00
774;DHT22;370;48.810;9.150;2023-01-19T10:49:43;4.90;1.00
774;DHT22;370;48.810;9.150;2023-01-19T10:52:28;4.60;1.00
774;DHT22;370;48.810;9.150;2023-01-19T10:54:55;4.20;1.00
774;DHT22;370;48.810;9.150;2023-01-19T10:57:27;4.20;1.00
774;DHT22;370;48.810;9.150;2023-01-19T10:59:55;4.30;1.00
774;DHT22;370;48.810;9.150;2023-01-19T11:02:24;4.30;1.00
774;DHT22;370;48.810;9.150;2023-01-19T11:04:53;4.20;1.00
774;DHT22;370;48.810;9.150;2023-01-19T11:07:22;4.10;1.00
774;DHT22;370;48.810;9.150;2023-01-19T11:12:39;4.00;1.00
774;DHT22;370;48.810;9.150;2023-01-19T11:15:12;4.00;1.00
774;DHT22;370;48.810;9.150;2023-01-19T11:17:44;4.20;1.00
774;DHT22;370;48.810;9.150;2023-01-19T11:20:19;5.00;1.00
774;DHT22;370;48.810;9.150;2023-01-19T11:22:47;5.80;1.00
774;DHT22;370;48.810;9.150;2023-01-19T11:25:23;6.10;1.00
774;DHT22;370;48.810;9.150;2023-01-19T11:27:52;6.10;1.00
774;DHT22;370;48.810;9.150;2023-01-19T11:30:21;6.20;1.00
774;DHT22;370;48.810;9.150;2023-01-19T11:32:50;6.30;1.00
774;DHT22;370;48.810;9.150;2023-01-19T11:35:35;6.60;1.00
774;DHT22;370;48.810;9.150;2023-01-19T11:38:19;6.90;1.00
774;DHT22;370;48.810;9.150;2023-01-19T11:40:54;7.60;1.00
774;DHT22;370;48.810;9.150;2023-01-19T11:43:23;8.10;1.00
774;DHT22;370;48.810;9.150;2023-01-19T11:45:50;8.60;1.00
774;DHT22;370;48.810;9.150;2023-01-19T11:48:24;9.70;1.00
774;DHT22;370;48.810;9.150;2023-01-19T11:50:53;11.00;1.00
774;DHT22;370;48.810;9.150;2023-01-19T11:53:22;12.60;1.00
774;DHT22;370;48.810;9.150;2023-01-19T11:55:54;11.80;1.00
774;DHT22;370;48.810;9.150;2023-01-19T11:58:21;11.40;1.00
774;DHT22;370;48.810;9.150;2023-01-19T12:00:51;10.60;1.00
774;DHT22;370;48.810;9.150;2023-01-19T12:03:22;9.50;1.00
774;DHT22;370;48.810;9.150;2023-01-19T12:05:54;9.10;1.00
774;DHT22;370;48.810;9.150;2023-01-19T12:08:25;8.60;1.00
774;DHT22;370;48.810;9.150;2023-01-19T12:10:56;8.00;1.00
774;DHT22;370;48.810;9.150;2023-01-19T12:13:26;7.40;1.00
774;DHT22;370;48.810;9.150;2023-01-19T12:15:56;6.70;1.00
774;DHT22;370;48.810;9.150;2023-01-19T12:18:28;6.20;1.00
774;DHT22;370;48.810;9.150;2023-01-19T12:20:55;5.60;1.00
774;DHT22;370;48.810;9.150;2023-01-19T12:23:37;5.30;1.00
774;DHT22;370;48.810;9.150;2023-01-19T12:26:24;5.20;1.00
774;DHT22;370;48.810;9.150;2023-01-19T12:28:54;5.00;1.00
774;DHT22;370;48.810;9.150;2023-01-19T12:31:23;4.70;1.00
774;DHT22;370;48.810;9.150;2023-01-19T12:33:52;4.60;1.00
774;DHT22;370;48.810;9.150;2023-01-19T12:36:35;4.30;1.00
774;DHT22;370;48.810;9.150;2023-01-19T12:39:04;3.90;1.00
774;DHT22;370;48.810;9.150;2023-01-19T12:41:32;4.00;1.00
774;DHT22;370;48.810;9.150;2023-01-19T12:44:23;4.10;1.00
774;DHT22;370;48.810;9.150;2023-01-19T12:46:53;4.10;1.00
774;DHT22;370;48.810;9.150;2023-01-19T12:49:30;4.10;1.00
774;DHT22;370;48.810;9.150;2023-01-19T12:52:16;4.10;1.00
774;DHT22;370;48.810;9.150;2023-01-19T12:54:51;4.20;1.00
774;DHT22;370;48.810;9.150;2023-01-19T12:57:21;4.20;1.00
774;DHT22;370;48.810;9.150;2023-01-19T12:59:56;4.20;1.00
774;DHT22;370;48.810;9.150;2023-01-19T13:02:50;4.20;1.00
774;DHT22;370;48.810;9.150;2023-01-19T13:05:24;4.20;1.00
774;DHT22;370;48.810;9.150;2023-01-19T13:08:14;4.10;1.00
774;DHT22;370;48.810;9.150;2023-01-19T13:19:44;3.60;1.00
774;DHT22;370;48.810;9.150;2023-01-19T13:25:34;3.50;1.00
774;DHT22;370;48.810;9.150;2023-01-19T13:28:05;3.50;1.00
774;DHT22;370;48.810;9.150;2023-01-19T13:30:34;3.50;1.00
774;DHT22;370;48.810;9.150;2023-01-19T13:33:05;3.60;1.00
774;DHT22;370;48.810;9.150;2023-01-19T13:35:35;3.50;1.60
774;DHT22;370;48.810;9.150;2023-01-19T13:38:02;3.50;1.00
774;DHT22;370;48.810;9.150;2023-01-19T13:40:36;3.50;1.00
774;DHT22;370;48.810;9.150;2023-01-19T13:43:09;3.40;1.00
774;DHT22;370;48.810;9.150;2023-01-19T13:45:40;3.40;1.00
774;DHT22;370;48.810;9.150;2023-01-19T13:48:15;3.40;1.60
774;DHT22;370;48.810;9.150;2023-01-19T13:50:56;3.30;2.00
774;DHT22;370;48.810;9.150;2023-01-19T13:53:23;3.30;1.50
774;DHT22;370;48.810;9.150;2023-01-19T13:56:08;3.30;1.80
774;DHT22;370;48.810;9.150;2023-01-19T13:58:35;3.30;2.30
774;DHT22;370;48.810;9.150;2023-01-19T14:01:01;3.40;2.80
774;DHT22;370;48.810;9.150;2023-01-19T14:03:28;3.40;1.60
774;DHT22;370;48.810;9.150;2023-01-19T14:05:55;3.40;1.60
774;DHT22;370;48.810;9.150;2023-01-19T14:08:22;3.40;1.60
774;DHT22;370;48.810;9.150;2023-01-19T14:10:59;3.40;1.60
774;DHT22;370;48.810;9.150;2023-01-19T14:13:29;3.40;1.60
774;DHT22;370;48.810;9.150;2023-01-19T14:15:58;3.40;1.60
774;DHT22;370;48.810;9.150;2023-01-19T14:18:27;3.40;1.60
774;DHT22;370;48.810;9.150;2023-01-19T14:20:57;3.40;2.40
774;DHT22;370;48.810;9.150;2023-01-19T14:23:44;3.40;2.70
774;DHT22;370;48.810;9.150;2023-01-19T14:26:41;3.30;2.80
774;DHT22;370;48.810;9.150;2023-01-19T14:29:17;3.30;2.60
774;DHT22;370;48.810;9.150;2023-01-19T14:31:46;3.30;3.20
774;DHT22;370;48.810;9.150;2023-01-19T14:34:37;3.30;3.20
774;DHT22;370;48.810;9.150;2023-01-19T14:37:12;3.30;2.80
774;DHT22;370;48.810;9.150;2023-01-19T14:39:43;3.20;3.20
774;DHT22;370;48.810;9.150;2023-01-19T14:42:14;2.90;5.00
774;DHT22;370;48.810;9.150;2023-01-19T14:44:45;2.90;5.90
774;DHT22;370;48.810;9.150;2023-01-19T14:47:24;2.90;5.50
774;DHT22;370;48.810;9.150;2023-01-19T14:49:53;2.90;5.70
774;DHT22;370;48.810;9.150;2023-01-19T14:52:24;2.70;6.60
774;DHT22;370;48.810;9.150;2023-01-19T14:54:52;2.60;6.80
774;DHT22;370;48.810;9.150;2023-01-19T14:57:20;2.60;7.40
774;DHT22;370;48.810;9.150;2023-01-19T14:59:48;2.60;7.80
774;DHT22;370;48.810;9.150;2023-01-19T15:02:15;2.50;7.60
774;DHT22;370;48.810;9.150;2023-01-19T15:04:43;2.50;9.00
774;DHT22;370;48.810;9.150;2023-01-19T15:07:15;2.40;9.70
774;DHT22;370;48.810;9.150;2023-01-19T15:09:43;2.40;9.70
774;DHT22;370;48.810;9.150;2023-01-19T15:12:11;2.40;9.70
774;DHT22;370;48.810;9.150;2023-01-19T15:14:38;2.30;10.10
774;DHT22;370;48.810;9.150;2023-01-19T15:17:11;2.40;10.20
774;DHT22;370;48.810;9.150;2023-01-19T15:19:39;2.50;9.80
774;DHT22;370;48.810;9.150;2023-01-19T15:22:10;2.70;9.20
774;DHT22;370;48.810;9.150;2023-01-19T15:24:36;2.70;8.70
774;DHT22;370;48.810;9.150;2023-01-19T15:27:04;2.70;9.30
774;DHT22;370;48.810;9.150;2023-01-19T15:29:30;2.80;8.40
774;DHT22;370;48.810;9.150;2023-01-19T15:31:57;2.90;8.60
774;DHT22;370;48.810;9.150;2023-01-19T15:34:25;2.90;8.30
774;DHT22;370;48.810;9.150;2023-01-19T15:36:52;2.90;8.20
774;DHT22;370;48.810;9.150;2023-01-19T15:39:19;3.00;6.50
774;DHT22;370;48.810;9.150;2023-01-19T15:41:46;3.00;6.20
774;DHT22;370;48.810;9.150;2023-01-19T15:44:12;3.00;5.90
774;DHT22;370;48.810;9.150;2023-01-19T15:46:39;3.00;5.40
774;DHT22;370;48.810;9.150;2023-01-19T15:49:06;3.00;5.50
774;DHT22;370;48.810;9.150;2023-01-19T15:51:34;3.00;5.30
774;DHT22;370;48.810;9.150;2023-01-19T15:54:00;3.00;5.70
774;DHT22;370;48.810;9.150;2023-01-19T15:56:28;3.00;5.10
774;DHT22;370;48.810;9.150;2023-01-19T15:58:55;3.10;4.90
774;DHT22;370;48.810;9.150;2023-01-19T16:01:25;3.00;4.80
774;DHT22;370;48.810;9.150;2023-01-19T16:03:57;3.10;4.70
774;DHT22;370;48.810;9.150;2023-01-19T16:06:23;3.00;5.00
774;DHT22;370;48.810;9.150;2023-01-19T16:08:56;2.90;5.20
774;DHT22;370;48.810;9.150;2023-01-19T16:11:26;2.80;6.40
774;DHT22;370;48.810;9.150;2023-01-19T16:13:52;2.80;6.40
774;DHT22;370;48.810;9.150;2023-01-19T16:16:21;2.70;7.00
774;DHT22;370;48.810;9.150;2023-01-19T16:18:48;2.70;7.00
774;DHT22;370;48.810;9.150;2023-01-19T16:21:15;2.70;7.10
774;DHT22;370;48.810;9.150;2023-01-19T16:23:42;2.70;7.00
774;DHT22;370;48.810;9.150;2023-01-19T16:26:27;2.70;6.90
774;DHT22;370;48.810;9.150;2023-01-19T16:28:58;2.70;6.80
774;DHT22;370;48.810;9.150;2023-01-19T16:31:26;2.60;6.80
774;DHT22;370;48.810;9.150;2023-01-19T16:33:53;2.60;7.10
774;DHT22;370;48.810;9.150;2023-01-19T16:36:22;2.50;7.50
774;DHT22;370;48.810;9.150;2023-01-19T16:38:49;2.40;7.90
774;DHT22;370;48.810;9.150;2023-01-19T16:41:16;2.30;8.30
774;DHT22;370;48.810;9.150;2023-01-19T16:43:48;2.20;8.70
774;DHT22;370;48.810;9.150;2023-01-19T16:46:21;2.10;9.00
774;DHT22;370;48.810;9.150;2023-01-19T16:48:48;1.90;9.40
774;DHT22;370;48.810;9.150;2023-01-19T16:51:16;1.90;9.40
774;DHT22;370;48.810;9.150;2023-01-19T16:53:47;1.90;9.60
774;DHT22;370;48.810;9.150;2023-01-19T16:56:14;1.80;10.40
774;DHT22;370;48.810;9.150;2023-01-19T16:58:41;1.70;11.40
774;DHT22;370;48.810;9.150;2023-01-19T17:01:11;1.60;12.00
774;DHT22;370;48.810;9.150;2023-01-19T17:03:39;1.50;12.90
774;DHT22;370;48.810;9.150;2023-01-19T17:06:07;1.40;13.60
774;DHT22;370;48.810;9.150;2023-01-19T17:08:34;1.30;15.80
774;DHT22;370;48.810;9.150;2023-01-19T17:11:07;1.30;15.60
774;DHT22;370;48.810;9.150;2023-01-19T17:13:34;1.30;17.50
774;DHT22;370;48.810;9.150;2023-01-19T17:16:02;1.40;16.00
774;DHT22;370;48.810;9.150;2023-01-19T17:18:31;1.50;15.70
774;DHT22;370;48.810;9.150;2023-01-19T17:20:59;1.50;15.40
774;DHT22;370;48.810;9.150;2023-01-19T17:23:26;1.60;15.40
774;DHT22;370;48.810;9.150;2023-01-19T17:25:54;1.60;15.30